createdAt,value
2022-10-23T00:02:08.877Z,10.89
2022-10-23T00:04:36.447Z,10.83
2022-10-23T00:07:03.982Z,10.83
2022-10-23T00:09:31.641Z,10.85
2022-10-23T00:11:59.190Z,10.81
2022-10-23T00:14:28.245Z,10.86
2022-10-23T00:16:55.809Z,10.92
2022-10-23T00:19:23.409Z,10.82
2022-10-23T00:21:51.036Z,10.83
2022-10-23T00:24:18.671Z,10.84
2022-10-23T00:26:46.314Z,10.86
2022-10-23T00:29:13.902Z,10.83
2022-10-23T00:31:42.801Z,10.81
2022-10-23T00:34:10.998Z,10.78
2022-10-23T00:36:38.978Z,10.77
2022-10-23T00:39:06.980Z,10.79
2022-10-23T00:41:34.676Z,10.74
2022-10-23T00:44:06.045Z,10.68
2022-10-23T00:46:34.405Z,10.72
2022-10-23T00:49:04.698Z,10.76
2022-10-23T00:51:37.315Z,10.74
2022-10-23T00:54:23.410Z,10.78
2022-10-23T00:56:53.578Z,10.70
2022-10-23T00:59:21.172Z,10.72
2022-10-23T01:01:49.117Z,10.78
2022-10-23T01:04:18.859Z,10.79
2022-10-23T01:06:54.346Z,10.81
2022-10-23T01:09:30.141Z,10.83
2022-10-23T01:12:01.965Z,10.70
2022-10-23T01:14:35.706Z,10.73
2022-10-23T01:17:10.173Z,10.76
2022-10-23T01:19:56.998Z,10.67
2022-10-23T01:22:39.297Z,10.63
2022-10-23T01:25:21.633Z,10.63
2022-10-23T01:27:53.921Z,10.64
2022-10-23T01:30:21.916Z,10.59
2022-10-23T01:32:53.813Z,10.65
2022-10-23T01:35:25.486Z,10.60
2022-10-23T01:37:57.145Z,10.55
2022-10-23T01:40:30.251Z,10.49
2022-10-23T01:43:05.487Z,10.47
2022-10-23T01:45:38.782Z,10.52
2022-10-23T01:48:10.900Z,10.48
2022-10-23T01:50:41.106Z,10.43
2022-10-23T01:53:08.925Z,10.43
2022-10-23T01:58:10.078Z,10.35
2022-10-23T02:00:40.813Z,10.37
2022-10-23T02:03:10.425Z,10.30
2022-10-23T02:05:39.220Z,10.32
2022-10-23T02:08:07.953Z,10.33
2022-10-23T02:10:42.654Z,10.25
2022-10-23T02:13:17.608Z,10.21
2022-10-23T02:15:49.835Z,10.22
2022-10-23T02:18:35.358Z,10.21
2022-10-23T02:21:08.626Z,10.21
2022-10-23T02:23:40.581Z,10.18
2022-10-23T02:26:11.913Z,10.17
2022-10-23T02:28:45.602Z,10.08
2022-10-23T02:31:17.009Z,10.20
2022-10-23T02:33:45.553Z,10.10
2022-10-23T02:36:13.308Z,10.10
2022-10-23T02:38:42.914Z,10.17
2022-10-23T02:41:36.318Z,10.08
2022-10-23T02:44:24.744Z,10.08
2022-10-23T02:46:57.637Z,10.01
2022-10-23T02:49:32.569Z,10.03
2022-10-23T02:52:09.550Z,10.05
2022-10-23T02:54:52.334Z,10.05
2022-10-23T02:57:27.398Z,10.03
2022-10-23T03:00:04.340Z,10.14
2022-10-23T03:02:37.608Z,10.08
2022-10-23T03:05:08.892Z,10.07
2022-10-23T03:07:37.313Z,10.01
2022-10-23T03:10:05.249Z,10.09
2022-10-23T03:12:33.140Z,10.10
2022-10-23T03:15:02.239Z,10.04
2022-10-23T03:17:29.792Z,10.09
2022-10-23T03:19:57.329Z,10.13
2022-10-23T03:22:24.937Z,10.17
2022-10-23T03:24:52.690Z,10.09
2022-10-23T03:27:20.258Z,10.22
2022-10-23T03:29:47.894Z,10.33
2022-10-23T03:32:16.947Z,10.27
2022-10-23T03:34:44.520Z,10.18
2022-10-23T03:37:12.067Z,10.17
2022-10-23T03:39:39.611Z,10.19
2022-10-23T03:42:07.358Z,10.11
2022-10-23T03:44:35.138Z,10.34
2022-10-23T03:47:02.716Z,10.43
2022-10-23T03:49:31.789Z,10.27
2022-10-23T03:51:59.459Z,10.11
2022-10-23T03:54:28.089Z,10.03
2022-10-23T03:56:57.482Z,10.01
2022-10-23T03:59:25.531Z,9.99
2022-10-23T04:01:53.194Z,9.95
2022-10-23T04:04:20.852Z,9.95
2022-10-23T04:06:49.827Z,9.77
2022-10-23T04:09:17.663Z,9.72
2022-10-23T04:11:45.375Z,9.66
2022-10-23T04:14:14.140Z,9.59
2022-10-23T04:16:41.809Z,9.79
2022-10-23T04:19:10.170Z,9.94
2022-10-23T04:21:37.759Z,10.13
2022-10-23T04:24:07.530Z,10.32
2022-10-23T04:26:35.253Z,10.17
2022-10-23T04:29:03.028Z,9.97
2022-10-23T04:31:30.657Z,10.05
2022-10-23T04:33:58.615Z,10.06
2022-10-23T04:36:26.231Z,9.98
2022-10-23T04:38:54.190Z,10.00
2022-10-23T04:41:23.101Z,9.94
2022-10-23T04:43:50.914Z,9.97
2022-10-23T04:46:18.546Z,10.01
2022-10-23T04:48:46.138Z,10.26
2022-10-23T04:51:13.839Z,10.31
2022-10-23T04:53:41.406Z,10.28
2022-10-23T04:56:09.298Z,10.28
2022-10-23T04:58:38.303Z,10.14
2022-10-23T05:01:07.318Z,10.16
2022-10-23T05:03:35.186Z,10.15
2022-10-23T05:06:02.769Z,10.17
2022-10-23T05:08:30.379Z,10.18
2022-10-23T05:10:58.109Z,10.27
2022-10-23T05:13:25.789Z,10.15
2022-10-23T05:15:55.055Z,10.15
2022-10-23T05:18:26.839Z,10.10
2022-10-23T05:21:00.180Z,10.15
2022-10-23T05:23:29.069Z,10.14
2022-10-23T05:25:56.646Z,10.18
2022-10-23T05:28:24.405Z,10.37
2022-10-23T05:30:52.225Z,10.53
2022-10-23T05:33:21.281Z,10.69
2022-10-23T05:35:49.041Z,10.65
2022-10-23T05:38:17.345Z,10.64
2022-10-23T05:40:45.144Z,10.65
2022-10-23T05:43:12.698Z,10.60
2022-10-23T05:45:40.289Z,10.63
2022-10-23T05:48:11.348Z,10.62
2022-10-23T05:50:51.242Z,10.55
2022-10-23T05:53:18.817Z,10.56
2022-10-23T05:55:46.388Z,10.53
2022-10-23T05:58:14.004Z,10.42
2022-10-23T06:00:41.540Z,10.43
2022-10-23T06:03:09.122Z,10.45
2022-10-23T06:05:36.825Z,10.41
2022-10-23T06:08:06.133Z,10.49
2022-10-23T06:10:33.880Z,10.46
2022-10-23T06:13:01.445Z,10.42
2022-10-23T06:15:29.093Z,10.35
2022-10-23T06:17:56.677Z,10.32
2022-10-23T06:20:27.887Z,10.35
2022-10-23T06:22:56.479Z,10.36
2022-10-23T06:25:25.428Z,10.37
2022-10-23T06:27:52.976Z,10.51
2022-10-23T06:30:20.539Z,10.53
2022-10-23T06:32:48.493Z,10.64
2022-10-23T06:35:16.175Z,10.70
2022-10-23T06:37:43.792Z,10.71
2022-10-23T06:40:11.725Z,10.68
2022-10-23T06:42:41.105Z,10.71
2022-10-23T06:45:09.570Z,10.78
2022-10-23T06:47:37.091Z,10.93
2022-10-23T06:50:05.365Z,10.98
2022-10-23T06:52:46.491Z,11.01
2022-10-23T06:55:15.497Z,11.13
2022-10-23T06:57:45.067Z,11.29
2022-10-23T07:00:14.481Z,11.47
2022-10-23T07:02:42.473Z,11.55
2022-10-23T07:05:13.514Z,11.50
2022-10-23T07:07:41.617Z,11.48
2022-10-23T07:10:09.535Z,11.45
2022-10-23T07:12:37.158Z,11.63
2022-10-23T07:15:07.306Z,11.63
2022-10-23T07:17:34.870Z,11.70
2022-10-23T07:20:02.662Z,11.85
2022-10-23T07:22:30.275Z,11.94
2022-10-23T07:24:58.214Z,11.83
2022-10-23T07:27:26.096Z,12.15
2022-10-23T07:29:54.098Z,12.21
2022-10-23T07:32:24.302Z,12.13
2022-10-23T07:34:51.891Z,12.15
2022-10-23T07:37:19.481Z,12.16
2022-10-23T07:39:47.245Z,12.46
2022-10-23T07:42:14.818Z,12.57
2022-10-23T07:44:42.379Z,12.44
2022-10-23T07:47:10.159Z,12.47
2022-10-23T07:49:39.131Z,12.51
2022-10-23T07:52:07.271Z,12.31
2022-10-23T07:54:35.233Z,12.65
2022-10-23T07:57:02.828Z,13.01
2022-10-23T07:59:33.395Z,13.34
2022-10-23T08:02:03.403Z,13.08
2022-10-23T08:04:31.101Z,13.35
2022-10-23T08:07:01.325Z,13.33
2022-10-23T08:09:28.891Z,13.65
2022-10-23T08:11:56.488Z,14.01
2022-10-23T08:14:24.422Z,13.79
2022-10-23T08:16:52.039Z,13.99
2022-10-23T08:19:19.948Z,13.99
2022-10-23T08:21:47.637Z,14.09
2022-10-23T08:24:16.618Z,14.62
2022-10-23T08:26:44.399Z,15.14
2022-10-23T08:29:12.023Z,14.49
2022-10-23T08:31:39.567Z,14.99
2022-10-23T08:34:07.155Z,15.19
2022-10-23T08:36:36.366Z,15.44
2022-10-23T08:39:03.962Z,15.45
2022-10-23T08:41:36.550Z,15.67
2022-10-23T08:44:10.833Z,15.82
2022-10-23T08:46:43.197Z,15.63
2022-10-23T08:49:25.331Z,16.03
2022-10-23T08:51:56.741Z,16.12
2022-10-23T08:54:29.424Z,16.13
2022-10-23T08:57:05.046Z,16.03
2022-10-23T08:59:39.644Z,16.03
2022-10-23T09:02:17.558Z,16.18
2022-10-23T09:04:48.470Z,16.22
2022-10-23T09:07:29.484Z,16.58
2022-10-23T09:10:11.502Z,16.83
2022-10-23T09:12:40.735Z,17.20
2022-10-23T09:15:21.349Z,17.42
2022-10-23T09:17:55.000Z,17.49
2022-10-23T09:20:26.165Z,17.78
2022-10-23T09:22:56.840Z,17.58
2022-10-23T09:25:26.688Z,17.87
2022-10-23T09:28:00.187Z,18.48
2022-10-23T09:30:35.389Z,18.98
2022-10-23T09:33:15.518Z,18.87
2022-10-23T09:35:54.631Z,18.92
2022-10-23T09:38:28.678Z,18.39
2022-10-23T09:40:56.567Z,17.87
2022-10-23T09:43:27.644Z,17.79
2022-10-23T09:45:59.908Z,17.49
2022-10-23T09:48:27.901Z,17.49
2022-10-23T09:50:57.555Z,17.52
2022-10-23T09:53:33.117Z,17.58
2022-10-23T09:56:03.263Z,17.39
2022-10-23T09:58:35.103Z,17.26
2022-10-23T10:01:04.082Z,16.94
2022-10-23T10:03:31.846Z,17.31
2022-10-23T10:06:02.307Z,17.18
2022-10-23T10:08:40.324Z,17.12
2022-10-23T10:11:16.886Z,17.26
2022-10-23T10:14:29.178Z,16.69
2022-10-23T10:17:04.572Z,16.89
2022-10-23T10:19:48.411Z,16.73
2022-10-23T10:22:29.822Z,17.03
2022-10-23T10:25:03.943Z,17.14
2022-10-23T10:27:46.626Z,17.45
2022-10-23T10:30:17.355Z,17.50
2022-10-23T10:32:51.512Z,17.49
2022-10-23T10:35:35.321Z,17.65
2022-10-23T10:38:25.145Z,18.48
2022-10-23T10:41:10.659Z,18.98
2022-10-23T10:43:47.675Z,20.37
2022-10-23T10:46:24.888Z,20.12
2022-10-23T10:49:01.045Z,19.78
2022-10-23T10:51:34.339Z,19.44
2022-10-23T10:54:16.243Z,19.45
2022-10-23T10:56:46.737Z,19.14
2022-10-23T10:59:19.856Z,19.25
2022-10-23T11:01:55.366Z,18.80
2022-10-23T11:04:33.138Z,18.94
2022-10-23T11:07:06.543Z,18.52
2022-10-23T11:09:34.284Z,18.41
2022-10-23T11:12:02.187Z,19.43
2022-10-23T11:14:33.143Z,19.55
2022-10-23T11:17:05.538Z,19.60
2022-10-23T11:19:40.879Z,19.39
2022-10-23T11:22:17.662Z,20.27
2022-10-23T11:25:04.538Z,21.32
2022-10-23T11:28:03.391Z,21.85
2022-10-23T11:30:37.118Z,23.18
2022-10-23T11:33:27.239Z,21.88
2022-10-23T11:36:05.347Z,21.57
2022-10-23T11:38:35.944Z,21.93
2022-10-23T11:41:06.587Z,21.25
2022-10-23T11:43:37.079Z,20.67
2022-10-23T11:46:16.110Z,21.30
2022-10-23T11:48:44.826Z,21.55
2022-10-23T11:51:30.510Z,22.86
2022-10-23T11:54:22.298Z,23.35
2022-10-23T11:56:54.798Z,23.95
2022-10-23T11:59:27.135Z,24.22
2022-10-23T12:01:57.686Z,24.35
2022-10-23T12:04:29.019Z,24.70
2022-10-23T12:07:00.987Z,24.39
2022-10-23T12:09:32.483Z,24.62
2022-10-23T12:12:16.795Z,23.05
2022-10-23T12:14:47.425Z,23.18
2022-10-23T12:17:33.554Z,22.27
2022-10-23T12:20:19.242Z,22.37
2022-10-23T12:22:55.899Z,22.98
2022-10-23T12:25:29.214Z,22.81
2022-10-23T12:28:05.712Z,22.86
2022-10-23T12:30:43.350Z,22.71
2022-10-23T12:33:27.502Z,22.87
2022-10-23T12:36:10.338Z,23.20
2022-10-23T12:38:46.120Z,23.40
2022-10-23T12:41:16.898Z,23.39
2022-10-23T12:43:50.709Z,24.17
2022-10-23T12:46:30.075Z,23.99
2022-10-23T12:48:59.117Z,23.49
2022-10-23T12:51:29.296Z,22.76
2022-10-23T12:53:58.597Z,21.90
2022-10-23T12:56:28.614Z,21.90
2022-10-23T12:59:01.528Z,21.86
2022-10-23T13:01:31.114Z,22.23
2022-10-23T13:04:00.671Z,22.16
2022-10-23T13:06:28.901Z,22.44
2022-10-23T13:08:58.466Z,22.44
2022-10-23T13:11:27.750Z,23.09
2022-10-23T13:13:55.385Z,22.60
2022-10-23T13:16:24.865Z,22.72
2022-10-23T13:18:54.042Z,22.50
2022-10-23T13:21:24.331Z,21.99
2022-10-23T13:23:52.794Z,21.55
2022-10-23T13:26:32.275Z,21.29
2022-10-23T13:29:02.284Z,20.86
2022-10-23T13:31:34.266Z,20.80
2022-10-23T13:34:18.788Z,20.80
2022-10-23T13:37:02.011Z,20.77
2022-10-23T13:39:32.641Z,20.50
2022-10-23T13:42:12.439Z,20.49
2022-10-23T13:44:40.587Z,20.44
2022-10-23T13:47:13.391Z,20.44
2022-10-23T13:49:40.987Z,20.42
2022-10-23T13:52:12.064Z,20.52
2022-10-23T13:54:39.687Z,20.61
2022-10-23T13:57:14.246Z,20.57
2022-10-23T13:59:41.919Z,20.47
2022-10-23T14:02:19.062Z,20.64
2022-10-23T14:04:47.170Z,20.56
2022-10-23T14:07:14.813Z,20.73
2022-10-23T14:09:42.382Z,20.59
2022-10-23T14:12:13.462Z,20.87
2022-10-23T14:14:41.121Z,20.77
2022-10-23T14:17:08.783Z,20.88
2022-10-23T14:22:05.121Z,20.92
2022-10-23T14:24:32.719Z,20.47
2022-10-23T14:27:00.367Z,20.60
2022-10-23T14:29:29.476Z,20.71
2022-10-23T14:31:57.010Z,20.85
2022-10-23T14:34:24.571Z,20.55
2022-10-23T14:37:07.240Z,20.77
2022-10-23T14:39:36.243Z,20.12
2022-10-23T14:42:03.911Z,20.28
2022-10-23T14:44:32.877Z,20.41
2022-10-23T14:47:00.785Z,20.83
2022-10-23T14:49:28.405Z,20.01
2022-10-23T14:52:21.203Z,20.61
2022-10-23T14:54:48.756Z,20.31
2022-10-23T14:57:17.962Z,20.41
2022-10-23T14:59:46.910Z,20.51
2022-10-23T15:02:15.277Z,20.58
2022-10-23T15:04:43.045Z,20.56
2022-10-23T15:07:10.822Z,20.33
2022-10-23T15:09:39.561Z,20.13
2022-10-23T15:12:08.114Z,20.12
2022-10-23T15:14:35.795Z,20.52
2022-10-23T15:17:04.649Z,20.55
2022-10-23T15:19:32.186Z,20.48
2022-10-23T15:21:59.778Z,20.32
2022-10-23T15:24:27.577Z,20.46
2022-10-23T15:26:55.210Z,20.48
2022-10-23T15:29:22.958Z,20.43
2022-10-23T15:31:54.522Z,20.41
2022-10-23T15:34:26.034Z,20.42
2022-10-23T15:36:54.661Z,20.02
2022-10-23T15:39:24.972Z,19.65
2022-10-23T15:41:54.321Z,19.87
2022-10-23T15:44:24.896Z,19.72
2022-10-23T15:46:53.228Z,19.77
2022-10-23T15:49:21.114Z,20.05
2022-10-23T15:51:50.018Z,19.65
2022-10-23T15:54:20.165Z,19.45
2022-10-23T15:56:49.711Z,19.72
2022-10-23T15:59:18.503Z,20.01
2022-10-23T16:01:46.272Z,19.65
2022-10-23T16:04:14.717Z,19.47
2022-10-23T16:06:42.778Z,19.11
2022-10-23T16:09:12.450Z,18.89
2022-10-23T16:11:42.357Z,18.72
2022-10-23T16:14:13.464Z,18.65
2022-10-23T16:16:41.358Z,18.47
2022-10-23T16:19:09.239Z,18.47
2022-10-23T16:21:37.418Z,18.29
2022-10-23T16:24:07.994Z,18.24
2022-10-23T16:26:37.633Z,18.07
2022-10-23T16:29:08.397Z,17.96
2022-10-23T16:31:36.468Z,17.79
2022-10-23T16:34:05.838Z,17.77
2022-10-23T16:36:33.955Z,17.60
2022-10-23T16:39:02.897Z,17.47
2022-10-23T16:41:30.508Z,17.31
2022-10-23T16:43:59.698Z,17.25
2022-10-23T16:46:27.774Z,17.36
2022-10-23T16:48:55.351Z,17.28
2022-10-23T16:51:25.709Z,17.23
2022-10-23T16:53:53.739Z,17.16
2022-10-23T16:56:24.151Z,17.08
2022-10-23T16:58:52.095Z,17.11
2022-10-23T17:01:23.172Z,17.03
2022-10-23T17:03:52.434Z,17.05
2022-10-23T17:06:22.275Z,17.09
2022-10-23T17:08:50.500Z,17.05
2022-10-23T17:11:20.596Z,17.12
2022-10-23T17:13:53.625Z,17.06
2022-10-23T17:16:28.274Z,17.07
2022-10-23T17:18:57.663Z,17.17
2022-10-23T17:21:25.686Z,17.26
2022-10-23T17:23:53.502Z,17.94
2022-10-23T17:26:23.124Z,19.08
2022-10-23T17:28:50.861Z,19.38
2022-10-23T17:31:21.471Z,18.99
2022-10-23T17:33:52.397Z,18.47
2022-10-23T17:36:21.711Z,18.18
2022-10-23T17:38:50.769Z,17.83
2022-10-23T17:41:20.452Z,17.59
2022-10-23T17:43:49.587Z,17.47
2022-10-23T17:46:18.319Z,17.36
2022-10-23T17:48:45.910Z,17.32
2022-10-23T17:51:17.778Z,17.29
2022-10-23T17:53:47.705Z,17.26
2022-10-23T17:56:19.076Z,17.20
2022-10-23T17:58:46.711Z,17.20
2022-10-23T18:01:16.073Z,17.19
2022-10-23T18:03:43.950Z,17.18
2022-10-23T18:06:14.061Z,17.24
2022-10-23T18:08:43.852Z,17.32
2022-10-23T18:11:16.356Z,17.28
2022-10-23T18:13:44.062Z,17.26
2022-10-23T18:16:13.209Z,17.23
2022-10-23T18:18:42.315Z,17.04
2022-10-23T18:21:10.310Z,17.20
2022-10-23T18:23:38.292Z,17.06
2022-10-23T18:26:07.763Z,17.27
2022-10-23T18:28:35.515Z,17.30
2022-10-23T18:31:03.147Z,17.35
2022-10-23T18:33:30.800Z,17.38
2022-10-23T18:35:58.439Z,17.35
2022-10-23T18:38:26.181Z,17.28
2022-10-23T18:40:55.839Z,17.27
2022-10-23T18:43:42.568Z,17.07
2022-10-23T18:46:11.734Z,17.20
2022-10-23T18:48:39.554Z,16.88
2022-10-23T18:51:15.702Z,16.70
2022-10-23T18:53:46.497Z,16.63
2022-10-23T18:56:14.850Z,16.48
2022-10-23T18:58:43.922Z,16.45
2022-10-23T19:01:11.928Z,16.77
2022-10-23T19:03:39.966Z,16.51
2022-10-23T19:06:08.298Z,16.65
2022-10-23T19:08:37.773Z,16.59
2022-10-23T19:11:06.516Z,16.64
2022-10-23T19:13:39.029Z,16.55
2022-10-23T19:16:11.932Z,16.61
2022-10-23T19:18:41.627Z,16.34
2022-10-23T19:21:09.903Z,16.61
2022-10-23T19:23:40.403Z,16.74
2022-10-23T19:26:10.411Z,16.70
2022-10-23T19:28:38.677Z,16.37
2022-10-23T19:31:09.809Z,16.52
2022-10-23T19:33:38.899Z,16.33
2022-10-23T19:36:12.627Z,16.22
2022-10-23T19:38:42.210Z,16.16
2022-10-23T19:41:10.033Z,16.27
2022-10-23T19:43:38.688Z,16.42
2022-10-23T19:46:11.199Z,16.10
2022-10-23T19:48:44.129Z,16.21
2022-10-23T19:51:12.834Z,16.03
2022-10-23T19:53:42.528Z,16.21
2022-10-23T19:56:12.577Z,15.85
2022-10-23T19:58:41.235Z,16.02
2022-10-23T20:01:12.419Z,15.70
2022-10-23T20:03:41.175Z,15.83
2022-10-23T20:06:10.442Z,15.97
2022-10-23T20:08:38.170Z,15.97
2022-10-23T20:11:06.767Z,16.10
2022-10-23T20:13:34.992Z,16.08
2022-10-23T20:16:02.814Z,16.00
2022-10-23T20:18:31.843Z,16.05
2022-10-23T20:21:02.510Z,15.60
2022-10-23T20:23:30.247Z,15.65
2022-10-23T20:26:04.873Z,15.72
2022-10-23T20:28:32.473Z,15.70
2022-10-23T20:31:00.797Z,15.39
2022-10-23T20:33:28.399Z,15.60
2022-10-23T20:35:57.352Z,15.53
2022-10-23T20:38:24.883Z,15.48
2022-10-23T20:40:52.413Z,15.53
2022-10-23T20:43:19.984Z,15.32
2022-10-23T20:45:47.501Z,15.52
2022-10-23T20:48:15.036Z,15.47
2022-10-23T20:50:42.569Z,15.19
2022-10-23T20:53:11.479Z,15.31
2022-10-23T20:55:41.988Z,15.47
2022-10-23T20:58:09.597Z,15.47
2022-10-23T21:00:37.235Z,15.46
2022-10-23T21:03:05.297Z,15.21
2022-10-23T21:05:34.420Z,15.36
2022-10-23T21:08:01.971Z,15.30
2022-10-23T21:10:30.844Z,15.25
2022-10-23T21:12:58.412Z,15.36
2022-10-23T21:15:26.329Z,15.33
2022-10-23T21:17:54.093Z,15.21
2022-10-23T21:20:21.602Z,15.39
2022-10-23T21:22:49.142Z,15.16
2022-10-23T21:25:16.766Z,15.32
2022-10-23T21:27:46.479Z,15.29
2022-10-23T21:30:14.569Z,15.36
2022-10-23T21:32:42.135Z,15.50
2022-10-23T21:35:11.258Z,15.27
2022-10-23T21:37:38.818Z,15.55
2022-10-23T21:40:07.894Z,15.27
2022-10-23T21:42:35.492Z,15.34
2022-10-23T21:45:04.914Z,15.73
2022-10-23T21:47:34.775Z,15.60
2022-10-23T21:50:02.393Z,15.26
2022-10-23T21:52:29.937Z,15.26
2022-10-23T21:54:57.506Z,15.50
2022-10-23T21:57:25.098Z,15.53
2022-10-23T21:59:55.122Z,15.47
2022-10-23T22:02:24.128Z,15.51
2022-10-23T22:04:52.078Z,15.41
2022-10-23T22:07:19.768Z,15.27
2022-10-23T22:09:47.370Z,15.42
2022-10-23T22:12:14.994Z,15.48
2022-10-23T22:14:42.664Z,15.45
2022-10-23T22:17:10.280Z,15.38
2022-10-23T22:19:39.192Z,15.32
2022-10-23T22:22:06.805Z,15.52
2022-10-23T22:24:34.766Z,15.51
2022-10-23T22:27:02.382Z,15.52
2022-10-23T22:29:30.816Z,15.46
2022-10-23T22:31:59.070Z,15.54
2022-10-23T22:37:17.833Z,15.61
2022-10-23T22:39:45.420Z,15.31
2022-10-23T22:42:12.970Z,15.58
2022-10-23T22:44:40.625Z,15.30
2022-10-23T22:47:08.233Z,15.37
2022-10-23T22:49:35.960Z,15.49
2022-10-23T22:52:03.531Z,15.44
2022-10-23T22:54:32.673Z,15.41
2022-10-23T22:57:00.204Z,15.42
2022-10-23T22:59:27.864Z,15.29
2022-10-23T23:01:55.677Z,15.35
2022-10-23T23:04:37.387Z,15.17
2022-10-23T23:07:06.294Z,15.10
2022-10-23T23:09:38.712Z,15.04
2022-10-23T23:12:06.470Z,15.15
2022-10-23T23:14:34.157Z,15.14
2022-10-23T23:17:01.859Z,14.94
2022-10-23T23:19:29.533Z,15.14
2022-10-23T23:21:57.498Z,15.07
2022-10-23T23:24:25.301Z,15.03
2022-10-23T23:26:54.210Z,15.18
2022-10-23T23:29:21.963Z,15.15
2022-10-23T23:31:49.813Z,15.14
2022-10-23T23:34:17.364Z,15.06
2022-10-23T23:36:44.933Z,14.93
2022-10-23T23:39:12.931Z,14.98
2022-10-23T23:41:40.490Z,15.12
2022-10-23T23:44:10.948Z,15.13
2022-10-23T23:46:38.533Z,15.11
2022-10-23T23:49:06.078Z,15.06
2022-10-23T23:51:33.681Z,15.00
2022-10-23T23:54:01.207Z,15.03
2022-10-23T23:56:29.034Z,14.95
2022-10-23T23:58:56.605Z,14.82
